首页
METAR-TAF:

METAR-TAF

机场 :

罗马菲乌米奇诺, 意大利

羅馬-菲烏米奇諾機場

纬度: 41-48N, 经度: 012-14E, 海拔: 2米

当前天气观测

该预报发布于30分钟前的21:50 UTC
风速4节,风向东转东北
温度 13°C
湿度 94%
气压 1017 hPa
能见度10公里或以上
1500米以下无云,无积雨云

METAR: LIRF 252150Z 06004KT CAVOK 13/12 Q1017 NOSIG

时间: 00:20 (22:20 UTC)

预报

该预报发布于5小时和20分钟前的17:00 UTC
预报有效从25日的 18点(UTC)到 26日的 24点(UTC)
风速5节,风向多变
能见度10公里或以上
1500米以下无云,无积雨云
短暂存在
从 26日的 00点(UTC)到 26日的 06点(UTC)
能見度: 3000
轻雾
成为
从 26日的 09点(UTC)到 26日的 11点(UTC)
风速10节,风向西转西南
成为
从 26日的 18点(UTC)到 26日的 20点(UTC)
风速5节,风向多变

TAF: LIRF 251700Z 2518/2624 VRB05KT CAVOK TEMPO 2600/2606 3000 BR BECMG 2609/2611 25010KT BECMG 2618/2620 VRB05KT

超过4000个机场的气象观测和天气预报(METAR&TAF报告)。

可查询的气象台以黄色和红色小点在地图上表示。

将鼠标移到小点上方,可查看气象台名称。

然后点击查看天气观测和预报。

如需切换地图:点击带黑十字的绿色按钮放大地图;点击带横线的绿色按钮缩小地图;或者点击绿色箭头查看邻近地区的地图。


METAR-TAF: